Time;durP1;ratioP1;P1;durP2;ratioP2;P2;SDS_P1;SDS_P2;PMS_P1;PMS_P2;Temp;Humidity;BMP_temperature;BMP_pressure;BME280_temperature;BME280_humidity;BME280_pressure;Samples;Min_cycle;Max_cycle;Signal;HPM_P1;HPM_P2
2023/01/07 00:01:01;;;;;;;71.20;14.80;;;;;;;;;;5074824;28;20835;-70
2023/01/07 00:03:28;;;;;;;65.93;8.80;;;;;;;;;;5074705;28;20447;-70
2023/01/07 00:05:58;;;;;;;70.53;15.83;;;;;;;;;;5074741;28;20447;-70
2023/01/07 00:08:25;;;;;;;62.80;8.50;;;;;;;;;;5074734;28;20450;-70
2023/01/07 00:10:53;;;;;;;61.87;5.67;;;;;;;;;;5074070;28;20479;-70
2023/01/07 00:13:20;;;;;;;66.80;13.07;;;;;;;;;;5074671;28;20822;-70
2023/01/07 00:15:48;;;;;;;74.13;18.27;;;;;;;;;;5074583;28;20450;-70
2023/01/07 00:18:15;;;;;;;70.27;15.83;;;;;;;;;;5074338;28;20813;-70
2023/01/07 00:20:42;;;;;;;68.00;13.57;;;;;;;;;;5073982;28;20439;-70
2023/01/07 00:23:09;;;;;;;68.40;12.87;;;;;;;;;;5074527;28;20471;-70
2023/01/07 00:25:36;;;;;;;64.77;10.10;;;;;;;;;;5074363;28;20840;-70
2023/01/07 00:28:04;;;;;;;61.20;7.33;;;;;;;;;;5074487;28;20443;-70
2023/01/07 00:30:31;;;;;;;63.57;7.73;;;;;;;;;;5073601;28;20510;-70
2023/01/07 00:33:03;;;;;;;62.37;7.57;;;;;;;;;;5074047;28;20475;-70
2023/01/07 00:35:31;;;;;;;60.00;5.80;;;;;;;;;;5074175;28;20936;-70
2023/01/07 00:37:58;;;;;;;59.67;5.40;;;;;;;;;;5074197;28;20451;-70
2023/01/07 00:40:25;;;;;;;60.13;4.93;;;;;;;;;;5073531;28;20450;-70
2023/01/07 00:43:00;;;;;;;64.23;6.90;;;;;;;;;;5074106;28;20468;-70
2023/01/07 00:45:27;;;;;;;63.33;7.17;;;;;;;;;;5073006;28;20520;-70
2023/01/07 00:47:54;;;;;;;63.40;8.30;;;;;;;;;;5074063;28;20461;-70
2023/01/07 00:50:23;;;;;;;62.93;8.60;;;;;;;;;;5073276;28;20447;-70
2023/01/07 00:52:50;;;;;;;61.73;6.70;;;;;;;;;;5073950;28;20474;-70
2023/01/07 00:55:17;;;;;;;61.97;7.77;;;;;;;;;;5073889;28;20459;-70
2023/01/07 00:57:44;;;;;;;61.00;6.57;;;;;;;;;;5073741;28;20454;-70
2023/01/07 01:00:13;;;;;;;61.07;5.93;;;;;;;;;;5073220;28;20453;-70
2023/01/07 01:02:40;;;;;;;60.20;4.80;;;;;;;;;;5073804;28;20467;-70
2023/01/07 01:05:07;;;;;;;61.23;5.30;;;;;;;;;;5073567;28;20455;-70
2023/01/07 01:07:36;;;;;;;61.27;5.97;;;;;;;;;;5073641;28;20473;-71
2023/01/07 01:10:04;;;;;;;61.67;7.23;;;;;;;;;;5072816;28;20509;-70
2023/01/07 01:12:33;;;;;;;61.57;6.93;;;;;;;;;;5073182;28;20491;-70
2023/01/07 01:15:00;;;;;;;62.63;7.47;;;;;;;;;;5073382;28;20969;-70
2023/01/07 01:17:27;;;;;;;65.67;8.73;;;;;;;;;;5073409;28;20963;-70
2023/01/07 01:19:54;;;;;;;65.07;8.07;;;;;;;;;;5072624;28;20447;-70
2023/01/07 01:22:21;;;;;;;65.00;9.80;;;;;;;;;;5073170;28;20478;-70
2023/01/07 01:24:50;;;;;;;65.40;8.90;;;;;;;;;;5073043;28;20463;-70
2023/01/07 01:27:17;;;;;;;62.87;8.40;;;;;;;;;;5073125;28;20966;-70
2023/01/07 01:29:44;;;;;;;61.87;7.77;;;;;;;;;;5072593;28;20448;-70
2023/01/07 01:32:12;;;;;;;65.33;7.33;;;;;;;;;;5072949;28;20566;-70
2023/01/07 01:34:39;;;;;;;63.60;7.97;;;;;;;;;;5073084;28;20454;-70
2023/01/07 01:37:06;;;;;;;61.90;7.80;;;;;;;;;;5073045;28;20444;-70
2023/01/07 01:39:33;;;;;;;67.87;7.27;;;;;;;;;;5072044;28;20530;-70
2023/01/07 01:42:02;;;;;;;64.03;8.50;;;;;;;;;;5073071;28;20467;-70
2023/01/07 01:44:37;;;;;;;61.67;7.07;;;;;;;;;;5073028;28;20443;-70
2023/01/07 01:47:05;;;;;;;63.37;6.67;;;;;;;;;;5072921;28;20443;-70
2023/01/07 01:49:34;;;;;;;65.43;8.17;;;;;;;;;;5071971;28;20454;-70
2023/01/07 01:52:03;;;;;;;63.60;7.43;;;;;;;;;;5072393;28;20483;-70
2023/01/07 01:54:30;;;;;;;62.47;7.40;;;;;;;;;;5072840;28;20818;-70
2023/01/07 01:56:59;;;;;;;62.57;7.23;;;;;;;;;;5072526;28;20451;-70
2023/01/07 01:59:29;;;;;;;63.10;7.57;;;;;;;;;;5071989;28;20823;-71
2023/01/07 02:01:56;;;;;;;63.40;7.77;;;;;;;;;;5072434;28;21017;-70
2023/01/07 02:04:25;;;;;;;62.87;8.17;;;;;;;;;;5072307;28;20461;-70
2023/01/07 02:06:55;;;;;;;65.17;8.00;;;;;;;;;;5072641;28;20444;-70
2023/01/07 02:09:22;;;;;;;63.80;8.10;;;;;;;;;;5071910;28;20462;-70
2023/01/07 02:11:52;;;;;;;63.80;8.00;;;;;;;;;;5072110;28;21130;-70
2023/01/07 02:14:32;;;;;;;65.30;8.90;;;;;;;;;;5072302;28;20456;-70
2023/01/07 02:17:04;;;;;;;64.63;9.13;;;;;;;;;;5072188;28;20447;-70
2023/01/07 02:19:47;;;;;;;64.50;9.07;;;;;;;;;;5071635;28;20455;-70
2023/01/07 02:22:20;;;;;;;64.20;9.17;;;;;;;;;;5072247;28;20451;-70
2023/01/07 02:25:05;;;;;;;64.77;9.37;;;;;;;;;;5072077;28;20462;-70
2023/01/07 02:27:48;;;;;;;65.07;9.70;;;;;;;;;;5068857;28;20455;-70
2023/01/07 02:30:36;;;;;;;64.33;9.60;;;;;;;;;;5071435;28;20456;-70
2023/01/07 02:33:08;;;;;;;63.80;8.90;;;;;;;;;;5071876;28;20463;-70
2023/01/07 02:35:51;;;;;;;68.70;10.17;;;;;;;;;;5072272;28;20500;-70
2023/01/07 02:38:24;;;;;;;64.67;9.03;;;;;;;;;;5072044;28;20461;-70
2023/01/07 02:40:55;;;;;;;63.90;8.97;;;;;;;;;;5071292;28;20956;-70
2023/01/07 02:43:27;;;;;;;65.03;10.13;;;;;;;;;;5071919;28;20447;-70
2023/01/07 02:45:58;;;;;;;67.30;11.27;;;;;;;;;;5072120;28;20455;-70
2023/01/07 02:48:27;;;;;;;67.07;11.17;;;;;;;;;;5071892;28;20823;-70
2023/01/07 02:50:55;;;;;;;67.37;11.10;;;;;;;;;;5071319;28;20446;-70
2023/01/07 02:53:22;;;;;;;64.17;9.40;;;;;;;;;;5071920;28;20448;-70
2023/01/07 02:55:54;;;;;;;66.33;9.87;;;;;;;;;;5071776;28;20447;-70
2023/01/07 02:58:33;;;;;;;67.20;9.93;;;;;;;;;;5071633;28;20451;-71
2023/01/07 03:01:06;;;;;;;66.70;9.93;;;;;;;;;;5071923;28;20814;-70
2023/01/07 03:03:42;;;;;;;66.07;10.03;;;;;;;;;;5071916;28;21108;-70
2023/01/07 03:06:17;;;;;;;62.73;8.60;;;;;;;;;;5071671;28;20451;-71
2023/01/07 03:08:50;;;;;;;63.70;9.00;;;;;;;;;;5073380;28;20447;-70
2023/01/07 03:11:18;;;;;;;63.17;9.33;;;;;;;;;;5075893;28;20874;-70
2023/01/07 03:13:48;;;;;;;65.67;9.90;;;;;;;;;;5075730;28;20447;-70
2023/01/07 03:16:18;;;;;;;65.33;9.20;;;;;;;;;;5075844;28;20837;-70
2023/01/07 03:18:49;;;;;;;65.30;9.03;;;;;;;;;;5074969;28;20457;-70
2023/01/07 03:21:18;;;;;;;65.23;9.70;;;;;;;;;;5075863;28;20464;-70
2023/01/07 03:23:48;;;;;;;64.07;9.17;;;;;;;;;;5075772;28;20826;-70
2023/01/07 03:26:17;;;;;;;63.07;8.97;;;;;;;;;;5075420;28;20983;-70
2023/01/07 03:28:44;;;;;;;63.50;8.53;;;;;;;;;;5074701;28;20451;-70
2023/01/07 03:31:13;;;;;;;63.90;9.07;;;;;;;;;;5075330;28;20447;-70
2023/01/07 03:33:42;;;;;;;64.40;8.43;;;;;;;;;;5075274;28;20447;-70
2023/01/07 03:36:11;;;;;;;62.83;8.50;;;;;;;;;;5075561;28;20447;-70
2023/01/07 03:38:41;;;;;;;63.50;8.77;;;;;;;;;;5074604;28;20447;-70
2023/01/07 03:42:38;;;;;;;66.90;9.47;;;;;;;;;;5075147;28;20455;-70
2023/01/07 03:43:55;;;;;;;63.67;7.97;;;;;;;;;;5074847;28;20446;-70
2023/01/07 03:46:22;;;;;;;65.57;8.60;;;;;;;;;;5075239;28;20447;-70
2023/01/07 03:48:49;;;;;;;63.90;9.10;;;;;;;;;;5074368;28;20451;-70
2023/01/07 03:51:17;;;;;;;63.33;8.97;;;;;;;;;;5074660;28;20473;-70
2023/01/07 03:53:44;;;;;;;62.70;8.80;;;;;;;;;;5075076;28;20444;-70
2023/01/07 03:56:11;;;;;;;62.47;8.23;;;;;;;;;;5074901;28;20456;-70
2023/01/07 03:58:39;;;;;;;65.40;9.57;;;;;;;;;;5074021;28;20451;-70
2023/01/07 04:01:06;;;;;;;65.13;9.40;;;;;;;;;;5074882;28;20545;-70
2023/01/07 04:03:33;;;;;;;64.63;9.37;;;;;;;;;;5074943;28;20458;-70
2023/01/07 04:06:00;;;;;;;64.37;9.10;;;;;;;;;;5074855;28;20450;-70
2023/01/07 04:08:28;;;;;;;63.80;8.70;;;;;;;;;;5074689;28;20813;-70
2023/01/07 04:10:55;;;;;;;63.43;9.30;;;;;;;;;;5074070;28;20447;-70
2023/01/07 04:13:23;;;;;;;65.80;9.00;;;;;;;;;;5074503;28;21022;-70
2023/01/07 04:15:50;;;;;;;64.50;9.43;;;;;;;;;;5074730;28;20447;-70
2023/01/07 04:18:17;;;;;;;63.70;9.50;;;;;;;;;;5074791;28;20633;-70
2023/01/07 04:20:45;;;;;;;63.83;9.50;;;;;;;;;;5073988;28;20829;-70
2023/01/07 04:23:12;;;;;;;64.47;8.53;;;;;;;;;;5074361;28;20469;-70
2023/01/07 04:25:41;;;;;;;66.17;9.50;;;;;;;;;;5074223;28;20459;-70
2023/01/07 04:28:08;;;;;;;64.13;9.50;;;;;;;;;;5074519;28;20810;-70
2023/01/07 04:30:37;;;;;;;64.10;9.03;;;;;;;;;;5073740;28;20453;-71
2023/01/07 04:33:04;;;;;;;65.67;9.10;;;;;;;;;;5074354;28;20487;-70
2023/01/07 04:35:31;;;;;;;64.37;9.00;;;;;;;;;;5074341;28;20447;-71
2023/01/07 04:37:59;;;;;;;64.90;9.33;;;;;;;;;;5074157;28;20474;-70
2023/01/07 04:40:26;;;;;;;64.17;9.27;;;;;;;;;;5073783;28;20450;-70
2023/01/07 04:42:54;;;;;;;63.60;8.53;;;;;;;;;;5074019;28;20992;-70
2023/01/07 04:45:21;;;;;;;64.90;9.40;;;;;;;;;;5074140;28;20451;-70
2023/01/07 04:47:48;;;;;;;62.67;7.87;;;;;;;;;;5074106;28;20454;-70
2023/01/07 04:50:16;;;;;;;64.47;8.20;;;;;;;;;;5073207;28;20455;-70
2023/01/07 04:52:43;;;;;;;65.37;8.83;;;;;;;;;;5073723;28;20491;-70
2023/01/07 04:55:10;;;;;;;64.73;7.63;;;;;;;;;;5073966;28;20953;-70
2023/01/07 04:57:39;;;;;;;64.30;8.70;;;;;;;;;;5073999;28;20871;-70
2023/01/07 05:00:09;;;;;;;63.47;9.07;;;;;;;;;;5073140;28;20542;-70
2023/01/07 05:02:36;;;;;;;62.10;8.50;;;;;;;;;;5073663;28;20491;-70
2023/01/07 05:05:03;;;;;;;65.00;8.37;;;;;;;;;;5073718;28;20462;-70
2023/01/07 05:07:30;;;;;;;61.50;7.63;;;;;;;;;;5073567;28;20450;-70
2023/01/07 05:09:57;;;;;;;63.20;8.80;;;;;;;;;;5072969;28;20534;-70
2023/01/07 05:12:24;;;;;;;68.53;8.00;;;;;;;;;;5073514;28;20495;-70
2023/01/07 05:14:51;;;;;;;63.17;8.60;;;;;;;;;;5073561;28;20454;-70
2023/01/07 05:17:20;;;;;;;61.80;8.47;;;;;;;;;;5073482;28;20998;-70
2023/01/07 05:19:47;;;;;;;63.03;7.80;;;;;;;;;;5072513;28;20448;-70
2023/01/07 05:22:14;;;;;;;62.47;8.30;;;;;;;;;;5073474;28;20812;-70
2023/01/07 05:24:41;;;;;;;64.83;8.03;;;;;;;;;;5073411;28;20467;-70
2023/01/07 05:27:08;;;;;;;62.40;8.10;;;;;;;;;;5073383;28;20463;-70
2023/01/07 05:29:35;;;;;;;63.57;8.50;;;;;;;;;;5072376;28;20829;-70
2023/01/07 05:32:02;;;;;;;63.37;7.77;;;;;;;;;;5072517;28;20491;-70
2023/01/07 05:34:31;;;;;;;62.37;7.70;;;;;;;;;;5072983;28;20451;-70
2023/01/07 05:36:58;;;;;;;64.00;8.20;;;;;;;;;;5073246;28;20447;-71
2023/01/07 05:39:25;;;;;;;62.27;8.27;;;;;;;;;;5072347;28;20447;-70
2023/01/07 05:41:53;;;;;;;66.50;8.40;;;;;;;;;;5072987;28;20848;-70
2023/01/07 05:44:20;;;;;;;63.13;8.30;;;;;;;;;;5072898;28;20443;-70
2023/01/07 05:46:47;;;;;;;60.50;6.67;;;;;;;;;;5072698;28;20456;-70
2023/01/07 05:49:14;;;;;;;63.07;8.30;;;;;;;;;;5072218;28;20448;-70
2023/01/07 05:51:42;;;;;;;63.60;8.20;;;;;;;;;;5072756;28;20476;-70
2023/01/07 05:54:09;;;;;;;62.67;7.90;;;;;;;;;;5072808;28;20447;-70
2023/01/07 05:56:37;;;;;;;62.07;7.33;;;;;;;;;;5072773;28;20451;-70
2023/01/07 05:59:04;;;;;;;61.70;7.30;;;;;;;;;;5071817;28;20911;-70
2023/01/07 06:01:31;;;;;;;63.27;7.47;;;;;;;;;;5072348;28;20474;-70
2023/01/07 06:03:58;;;;;;;60.40;6.80;;;;;;;;;;5072436;28;20969;-70
2023/01/07 06:06:25;;;;;;;62.27;7.83;;;;;;;;;;5072622;28;20443;-70
2023/01/07 06:08:53;;;;;;;63.17;8.00;;;;;;;;;;5071756;28;20471;-70
2023/01/07 06:11:21;;;;;;;64.27;8.30;;;;;;;;;;5072400;28;20481;-70
2023/01/07 06:13:48;;;;;;;62.40;7.30;;;;;;;;;;5072163;28;21022;-70
2023/01/07 06:16:15;;;;;;;62.87;7.00;;;;;;;;;;5072715;28;20451;-70
2023/01/07 06:18:42;;;;;;;61.20;7.67;;;;;;;;;;5071649;28;20501;-70
2023/01/07 06:21:09;;;;;;;62.70;7.00;;;;;;;;;;5072216;28;20466;-70
2023/01/07 06:23:36;;;;;;;62.80;7.40;;;;;;;;;;5072223;28;20470;-70
2023/01/07 06:26:05;;;;;;;63.17;8.90;;;;;;;;;;5072129;28;20463;-70
2023/01/07 06:28:32;;;;;;;63.67;8.87;;;;;;;;;;5071444;28;20451;-70
2023/01/07 06:30:59;;;;;;;62.03;6.93;;;;;;;;;;5072046;28;20958;-70
2023/01/07 06:33:26;;;;;;;62.97;7.87;;;;;;;;;;5072393;28;20793;-70
2023/01/07 06:35:53;;;;;;;61.00;7.53;;;;;;;;;;5072105;28;20443;-70
2023/01/07 06:38:20;;;;;;;62.97;7.40;;;;;;;;;;5071948;28;20470;-70
2023/01/07 06:40:48;;;;;;;66.70;7.93;;;;;;;;;;5071316;28;20479;-70
2023/01/07 06:43:16;;;;;;;64.07;7.43;;;;;;;;;;5070865;28;20475;-70
2023/01/07 06:45:43;;;;;;;61.50;7.60;;;;;;;;;;5072067;28;20454;-70
2023/01/07 06:48:10;;;;;;;64.27;8.53;;;;;;;;;;5071957;28;20447;-70
2023/01/07 06:50:37;;;;;;;62.70;7.50;;;;;;;;;;5071275;28;20816;-70
2023/01/07 06:53:04;;;;;;;64.63;8.07;;;;;;;;;;5071792;28;20489;-70
2023/01/07 06:55:32;;;;;;;63.20;7.50;;;;;;;;;;5071750;28;20818;-70
2023/01/07 06:57:59;;;;;;;61.80;6.57;;;;;;;;;;5072125;28;20454;-70
2023/01/07 07:00:27;;;;;;;62.30;7.70;;;;;;;;;;5071214;28;20448;-70
2023/01/07 07:02:54;;;;;;;62.47;7.50;;;;;;;;;;5072124;28;20471;-70
2023/01/07 07:05:21;;;;;;;61.70;7.23;;;;;;;;;;5071652;28;20959;-70
2023/01/07 07:07:49;;;;;;;61.63;7.10;;;;;;;;;;5071676;28;20462;-70
2023/01/07 07:10:16;;;;;;;64.70;7.03;;;;;;;;;;5070793;28;20452;-70
2023/01/07 07:12:43;;;;;;;62.67;8.37;;;;;;;;;;5071431;28;20856;-70
2023/01/07 07:15:11;;;;;;;62.60;7.60;;;;;;;;;;5071788;28;20542;-70
2023/01/07 07:17:39;;;;;;;63.17;7.70;;;;;;;;;;5071540;28;20459;-70
2023/01/07 07:20:07;;;;;;;63.00;7.57;;;;;;;;;;5070826;28;20454;-70
2023/01/07 07:22:34;;;;;;;62.67;7.23;;;;;;;;;;5072212;28;20834;-70
2023/01/07 07:25:01;;;;;;;62.40;7.30;;;;;;;;;;5071340;28;20463;-70
2023/01/07 07:27:28;;;;;;;60.90;6.23;;;;;;;;;;5071392;28;20534;-70
2023/01/07 07:29:55;;;;;;;60.90;6.20;;;;;;;;;;5070827;28;20447;-70
2023/01/07 07:32:27;;;;;;;59.67;5.33;;;;;;;;;;5071301;28;20471;-70
2023/01/07 07:34:55;;;;;;;61.60;5.30;;;;;;;;;;5071490;28;20452;-70
2023/01/07 07:37:22;;;;;;;60.30;5.13;;;;;;;;;;5071317;28;20956;-70
2023/01/07 07:39:49;;;;;;;59.30;4.70;;;;;;;;;;5070801;28;20454;-70
2023/01/07 07:42:16;;;;;;;58.60;3.77;;;;;;;;;;5071105;28;20482;-70
2023/01/07 07:44:44;;;;;;;59.13;3.93;;;;;;;;;;5071240;28;20457;-70
2023/01/07 07:47:11;;;;;;;58.90;3.63;;;;;;;;;;5071334;28;20451;-70
2023/01/07 07:49:38;;;;;;;57.47;3.30;;;;;;;;;;5070997;28;20443;-70
2023/01/07 07:52:06;;;;;;;57.67;3.23;;;;;;;;;;5071380;28;20477;-70
2023/01/07 07:54:33;;;;;;;57.90;2.90;;;;;;;;;;5073547;28;20536;-70
2023/01/07 07:57:02;;;;;;;58.27;3.30;;;;;;;;;;5075093;28;20516;-70
2023/01/07 07:59:29;;;;;;;58.57;3.87;;;;;;;;;;5073998;28;20450;-70
2023/01/07 08:01:56;;;;;;;58.10;3.50;;;;;;;;;;5074723;28;20467;-70
2023/01/07 08:04:24;;;;;;;62.37;3.87;;;;;;;;;;5074756;28;20443;-70
2023/01/07 08:06:51;;;;;;;65.23;4.50;;;;;;;;;;5074727;28;20969;-70
2023/01/07 08:09:19;;;;;;;58.13;3.47;;;;;;;;;;5074141;28;20448;-70
2023/01/07 08:11:46;;;;;;;57.60;3.20;;;;;;;;;;5074757;28;20490;-69
2023/01/07 08:14:13;;;;;;;57.43;3.17;;;;;;;;;;5074638;28;20490;-71
2023/01/07 08:16:40;;;;;;;59.50;3.47;;;;;;;;;;5074614;28;20953;-71
2023/01/07 08:19:07;;;;;;;57.77;2.90;;;;;;;;;;5073701;28;20454;-71
2023/01/07 08:21:35;;;;;;;57.83;3.20;;;;;;;;;;5074413;28;20471;-71
2023/01/07 08:24:02;;;;;;;57.33;3.17;;;;;;;;;;5074632;28;20443;-71
2023/01/07 08:26:30;;;;;;;57.37;2.63;;;;;;;;;;5074279;28;20463;-71
2023/01/07 08:28:57;;;;;;;59.27;2.73;;;;;;;;;;5073706;28;20451;-71
2023/01/07 08:31:24;;;;;;;58.00;3.10;;;;;;;;;;5074191;28;20471;-71
2023/01/07 08:33:51;;;;;;;58.10;3.10;;;;;;;;;;5074232;28;21010;-71
2023/01/07 08:36:19;;;;;;;58.27;3.40;;;;;;;;;;5074467;28;20450;-71
2023/01/07 08:38:46;;;;;;;59.67;3.60;;;;;;;;;;5073480;28;20729;-71
2023/01/07 08:41:13;;;;;;;58.83;3.60;;;;;;;;;;5074152;28;20505;-71
2023/01/07 08:43:43;;;;;;;58.17;3.23;;;;;;;;;;5074611;28;20827;-71
2023/01/07 08:46:11;;;;;;;57.70;3.13;;;;;;;;;;5073982;28;20447;-71
2023/01/07 08:48:39;;;;;;;59.77;3.77;;;;;;;;;;5073413;28;20863;-71
2023/01/07 08:51:06;;;;;;;57.47;3.33;;;;;;;;;;5073684;28;20452;-71
2023/01/07 08:53:34;;;;;;;57.97;3.40;;;;;;;;;;5073971;28;20479;-71
2023/01/07 08:56:01;;;;;;;58.20;3.10;;;;;;;;;;5073788;28;20462;-71
2023/01/07 08:58:28;;;;;;;58.00;3.30;;;;;;;;;;5073627;28;20451;-71
2023/01/07 09:01:00;;;;;;;58.50;3.30;;;;;;;;;;5073581;28;20454;-71
2023/01/07 09:03:27;;;;;;;57.97;3.20;;;;;;;;;;5074180;28;20785;-71
2023/01/07 09:05:54;;;;;;;58.30;3.77;;;;;;;;;;5072965;28;20458;-71
2023/01/07 09:08:21;;;;;;;59.93;3.40;;;;;;;;;;5073589;28;20454;-71
2023/01/07 09:10:48;;;;;;;58.37;3.03;;;;;;;;;;5073001;28;20773;-71
2023/01/07 09:13:16;;;;;;;58.67;3.57;;;;;;;;;;5073423;28;20999;-71
2023/01/07 09:15:43;;;;;;;58.47;3.57;;;;;;;;;;5073769;28;20450;-71
2023/01/07 09:18:11;;;;;;;61.40;3.93;;;;;;;;;;5073552;28;20452;-71
2023/01/07 09:20:38;;;;;;;61.97;3.73;;;;;;;;;;5072780;28;20447;-71
2023/01/07 09:23:05;;;;;;;58.80;3.70;;;;;;;;;;5073162;28;20479;-71
2023/01/07 09:25:32;;;;;;;58.97;4.00;;;;;;;;;;5073129;28;20459;-71
2023/01/07 09:27:59;;;;;;;60.10;4.67;;;;;;;;;;5073313;28;20879;-71
2023/01/07 09:30:27;;;;;;;58.17;4.00;;;;;;;;;;5072644;28;20447;-71
2023/01/07 09:32:54;;;;;;;59.97;4.07;;;;;;;;;;5073056;28;20471;-71
2023/01/07 09:35:22;;;;;;;60.10;4.30;;;;;;;;;;5072991;28;20458;-71
2023/01/07 09:37:49;;;;;;;60.47;4.13;;;;;;;;;;5072875;28;20462;-71
2023/01/07 09:40:21;;;;;;;59.17;4.00;;;;;;;;;;5072057;28;20970;-71
2023/01/07 09:42:52;;;;;;;60.10;3.50;;;;;;;;;;5072806;28;20474;-71
2023/01/07 09:45:20;;;;;;;58.70;3.80;;;;;;;;;;5073082;28;20452;-71
2023/01/07 09:47:48;;;;;;;60.10;4.20;;;;;;;;;;5072804;28;20454;-71
2023/01/07 09:50:19;;;;;;;61.70;4.00;;;;;;;;;;5072031;28;20444;-70
2023/01/07 09:52:49;;;;;;;59.23;4.13;;;;;;;;;;5072501;28;20467;-70
2023/01/07 09:55:18;;;;;;;62.20;4.60;;;;;;;;;;5073056;28;20483;-70
2023/01/07 09:57:45;;;;;;;58.97;3.80;;;;;;;;;;5072543;28;20862;-70
2023/01/07 10:00:16;;;;;;;60.10;4.43;;;;;;;;;;5071952;28;20444;-70
2023/01/07 10:02:46;;;;;;;58.50;3.60;;;;;;;;;;5072332;28;20475;-70
2023/01/07 10:05:20;;;;;;;60.13;4.23;;;;;;;;;;5072434;28;20466;-70
2023/01/07 10:07:53;;;;;;;58.87;3.90;;;;;;;;;;5072475;28;20447;-70
2023/01/07 10:10:25;;;;;;;58.57;4.00;;;;;;;;;;5071887;28;20449;-70
2023/01/07 10:12:55;;;;;;;58.90;4.10;;;;;;;;;;5072463;28;20459;-70
2023/01/07 10:15:28;;;;;;;58.57;3.90;;;;;;;;;;5072245;28;20489;-70
2023/01/07 10:18:07;;;;;;;59.40;4.20;;;;;;;;;;5072090;28;20439;-70
2023/01/07 10:20:38;;;;;;;60.40;4.20;;;;;;;;;;5071736;28;20451;-70
2023/01/07 10:23:10;;;;;;;58.73;4.37;;;;;;;;;;5072207;28;20471;-70
2023/01/07 10:25:41;;;;;;;59.80;4.67;;;;;;;;;;5072076;28;20461;-70
2023/01/07 10:28:11;;;;;;;59.10;4.67;;;;;;;;;;5071982;28;20448;-70
2023/01/07 10:30:41;;;;;;;60.90;4.50;;;;;;;;;;5071663;28;20447;-70
2023/01/07 10:33:15;;;;;;;59.57;4.50;;;;;;;;;;5071999;28;21002;-70
2023/01/07 10:35:43;;;;;;;59.60;4.70;;;;;;;;;;5072165;28;20439;-70
2023/01/07 10:38:15;;;;;;;59.07;4.20;;;;;;;;;;5071881;28;20462;-70
2023/01/07 10:40:44;;;;;;;61.13;5.30;;;;;;;;;;5071187;28;20939;-70
2023/01/07 10:43:20;;;;;;;61.00;5.67;;;;;;;;;;5072084;28;20459;-70
2023/01/07 10:45:57;;;;;;;64.20;8.83;;;;;;;;;;5072112;28;20453;-70
2023/01/07 10:48:40;;;;;;;60.00;4.67;;;;;;;;;;5071848;28;20457;-70
2023/01/07 10:51:12;;;;;;;59.27;5.07;;;;;;;;;;5071713;28;20443;-70
2023/01/07 10:53:47;;;;;;;60.10;5.03;;;;;;;;;;5072032;28;20482;-70
2023/01/07 10:56:21;;;;;;;60.77;5.80;;;;;;;;;;5071997;28;20443;-70
2023/01/07 10:58:48;;;;;;;65.90;8.90;;;;;;;;;;5070370;28;20824;-70
2023/01/07 11:01:23;;;;;;;63.00;6.30;;;;;;;;;;5071721;28;20472;-70
2023/01/07 11:03:51;;;;;;;61.40;6.60;;;;;;;;;;5071760;28;20957;-70
2023/01/07 11:06:20;;;;;;;62.47;7.20;;;;;;;;;;5071739;28;20443;-70
2023/01/07 11:08:49;;;;;;;62.70;6.50;;;;;;;;;;5070937;28;21219;-70
2023/01/07 11:11:17;;;;;;;62.23;6.77;;;;;;;;;;5071130;28;20933;-70
2023/01/07 11:13:56;;;;;;;60.70;5.77;;;;;;;;;;5070849;28;20574;-70
2023/01/07 11:16:25;;;;;;;62.40;6.50;;;;;;;;;;5071752;28;20582;-71
2023/01/07 11:18:54;;;;;;;60.37;5.70;;;;;;;;;;5070444;28;20448;-71
2023/01/07 11:21:35;;;;;;;60.90;6.03;;;;;;;;;;5071434;28;20473;-71
2023/01/07 11:24:23;;;;;;;59.77;5.87;;;;;;;;;;5071526;28;20449;-71
2023/01/07 11:26:51;;;;;;;60.60;5.77;;;;;;;;;;5071405;28;20538;-70
2023/01/07 11:29:22;;;;;;;61.20;5.60;;;;;;;;;;5071776;28;20813;-70
2023/01/07 11:31:50;;;;;;;62.97;6.10;;;;;;;;;;5075815;28;20826;-70
2023/01/07 11:34:19;;;;;;;60.07;5.37;;;;;;;;;;5075154;28;20493;-70
2023/01/07 11:36:46;;;;;;;60.80;6.10;;;;;;;;;;5075124;28;20932;-70
2023/01/07 11:39:20;;;;;;;60.10;5.60;;;;;;;;;;5074758;28;20448;-70
2023/01/07 11:41:54;;;;;;;59.83;5.27;;;;;;;;;;5074826;28;20505;-70
2023/01/07 11:44:21;;;;;;;60.80;6.00;;;;;;;;;;5075191;28;20822;-70
2023/01/07 11:46:48;;;;;;;61.70;5.50;;;;;;;;;;5075236;28;20500;-70
2023/01/07 11:49:23;;;;;;;60.00;6.10;;;;;;;;;;5074237;28;20530;-70
2023/01/07 11:51:50;;;;;;;60.77;5.97;;;;;;;;;;5075080;28;20466;-70
2023/01/07 11:54:21;;;;;;;60.00;5.70;;;;;;;;;;5074796;28;20483;-70
2023/01/07 11:56:48;;;;;;;60.30;5.53;;;;;;;;;;5074710;28;20932;-70
2023/01/07 11:59:22;;;;;;;61.27;5.97;;;;;;;;;;5074129;28;20465;-70
2023/01/07 12:01:50;;;;;;;59.93;5.47;;;;;;;;;;5074769;28;20467;-70
2023/01/07 12:04:21;;;;;;;60.57;5.53;;;;;;;;;;5075038;28;20447;-70
2023/01/07 12:06:49;;;;;;;60.07;5.90;;;;;;;;;;5074815;28;20504;-70
2023/01/07 12:09:24;;;;;;;60.37;5.13;;;;;;;;;;5074167;28;20474;-70
2023/01/07 12:11:53;;;;;;;67.90;6.07;;;;;;;;;;5074728;28;20471;-70
2023/01/07 12:14:24;;;;;;;60.57;5.90;;;;;;;;;;5074511;28;20479;-70
2023/01/07 12:16:52;;;;;;;60.57;5.77;;;;;;;;;;5074757;28;20447;-70
2023/01/07 12:19:24;;;;;;;59.80;5.03;;;;;;;;;;5073933;28;20455;-70
2023/01/07 12:21:56;;;;;;;60.57;5.67;;;;;;;;;;5074598;28;20463;-70
2023/01/07 12:24:41;;;;;;;60.57;5.83;;;;;;;;;;5074493;28;20448;-70
2023/01/07 12:27:17;;;;;;;59.93;5.53;;;;;;;;;;5063496;28;20462;-70
2023/01/07 12:29:50;;;;;;;60.93;5.07;;;;;;;;;;5073420;28;20435;-70
2023/01/07 12:32:25;;;;;;;61.80;5.63;;;;;;;;;;5074468;28;20561;-70
2023/01/07 12:34:54;;;;;;;60.27;6.13;;;;;;;;;;5074203;28;20539;-70
2023/01/07 12:37:30;;;;;;;60.57;6.10;;;;;;;;;;5073769;28;20456;-69
2023/01/07 12:40:03;;;;;;;61.67;6.23;;;;;;;;;;5072551;28;20451;-70
2023/01/07 12:42:34;;;;;;;61.27;5.77;;;;;;;;;;5073758;28;20467;-70
2023/01/07 12:45:03;;;;;;;59.87;5.40;;;;;;;;;;5074278;28;20454;-71
2023/01/07 12:47:34;;;;;;;61.50;5.00;;;;;;;;;;5073853;28;20447;-70
2023/01/07 12:50:04;;;;;;;59.83;4.90;;;;;;;;;;5072979;28;20526;-70
2023/01/07 12:52:37;;;;;;;59.90;4.50;;;;;;;;;;5074207;28;20463;-70
2023/01/07 12:55:09;;;;;;;59.03;4.70;;;;;;;;;;5073880;28;20475;-70
2023/01/07 12:57:39;;;;;;;59.00;5.07;;;;;;;;;;5073760;28;20451;-70
2023/01/07 13:00:08;;;;;;;60.33;5.27;;;;;;;;;;5073303;28;20803;-70
2023/01/07 13:02:40;;;;;;;59.23;5.10;;;;;;;;;;5073947;28;20472;-70
2023/01/07 13:05:11;;;;;;;59.70;5.17;;;;;;;;;;5073854;28;20487;-71
2023/01/07 13:07:43;;;;;;;59.40;5.17;;;;;;;;;;5073677;28;20943;-70
2023/01/07 13:10:15;;;;;;;58.80;5.00;;;;;;;;;;5072814;28;20505;-71
2023/01/07 13:12:44;;;;;;;61.80;4.80;;;;;;;;;;5073469;28;20486;-71
2023/01/07 13:15:15;;;;;;;60.60;4.90;;;;;;;;;;5073414;28;20478;-71
2023/01/07 13:17:42;;;;;;;59.00;5.00;;;;;;;;;;5073461;28;20451;-71
2023/01/07 13:20:12;;;;;;;59.40;4.60;;;;;;;;;;5072628;28;21037;-71
2023/01/07 13:22:43;;;;;;;59.90;5.03;;;;;;;;;;5073368;28;20535;-71
2023/01/07 13:25:16;;;;;;;59.30;5.00;;;;;;;;;;5073028;28;20464;-70
2023/01/07 13:28:00;;;;;;;59.07;4.80;;;;;;;;;;5072999;28;20450;-72
2023/01/07 13:30:33;;;;;;;60.03;4.63;;;;;;;;;;5072792;28;20796;-70
2023/01/07 13:33:06;;;;;;;61.13;5.27;;;;;;;;;;5073261;28;20467;-71
2023/01/07 13:35:42;;;;;;;60.67;4.63;;;;;;;;;;5072960;28;20483;-71
2023/01/07 13:38:39;;;;;;;59.27;4.60;;;;;;;;;;5072997;28;20924;-70
2023/01/07 13:41:21;;;;;;;59.90;5.23;;;;;;;;;;5011020;28;20454;-70
2023/01/07 13:44:07;;;;;;;59.57;4.47;;;;;;;;;;5054185;28;20847;-70
2023/01/07 13:46:35;;;;;;;60.00;4.77;;;;;;;;;;5073165;28;20450;-70
2023/01/07 13:49:03;;;;;;;59.53;5.00;;;;;;;;;;5071768;28;20977;-70
2023/01/07 13:51:32;;;;;;;60.23;6.10;;;;;;;;;;5071473;28;20659;-70
2023/01/07 13:53:59;;;;;;;60.23;5.20;;;;;;;;;;5072641;28;20462;-70
2023/01/07 13:56:34;;;;;;;59.73;4.90;;;;;;;;;;5071874;28;20487;-70
2023/01/07 13:59:02;;;;;;;59.43;5.07;;;;;;;;;;5071465;28;20455;-70
2023/01/07 14:01:31;;;;;;;59.90;5.00;;;;;;;;;;5072674;28;20475;-70
2023/01/07 14:04:01;;;;;;;59.57;5.10;;;;;;;;;;5072652;28;20813;-70
2023/01/07 14:06:37;;;;;;;58.93;5.03;;;;;;;;;;5072498;28;20482;-71
2023/01/07 14:09:25;;;;;;;63.50;4.87;;;;;;;;;;5071596;28;20443;-71
2023/01/07 14:12:19;;;;;;;62.77;5.03;;;;;;;;;;5067652;28;20983;-70
2023/01/07 14:14:53;;;;;;;59.70;4.53;;;;;;;;;;5072340;28;20491;-69
2023/01/07 14:17:23;;;;;;;59.57;5.40;;;;;;;;;;5072152;28;20455;-70
2023/01/07 14:19:54;;;;;;;59.17;4.60;;;;;;;;;;5071718;28;20816;-70
2023/01/07 14:22:27;;;;;;;59.00;4.80;;;;;;;;;;5072166;28;20999;-70
2023/01/07 14:25:10;;;;;;;58.47;4.30;;;;;;;;;;5072239;28;20823;-70
2023/01/07 14:28:04;;;;;;;59.17;4.33;;;;;;;;;;5070009;28;20542;-70
2023/01/07 14:30:34;;;;;;;64.90;5.13;;;;;;;;;;5035583;28;20481;-69
2023/01/07 14:33:03;;;;;;;58.90;4.43;;;;;;;;;;5072167;28;20987;-70
2023/01/07 14:35:33;;;;;;;58.77;4.37;;;;;;;;;;5072014;28;20489;-70
2023/01/07 14:38:00;;;;;;;59.43;5.00;;;;;;;;;;5071776;28;20451;-70
2023/01/07 14:41:01;;;;;;;60.07;4.47;;;;;;;;;;5071508;28;20997;-70
2023/01/07 14:44:02;;;;;;;58.97;4.43;;;;;;;;;;5071963;28;20957;-70